Time;durP1;ratioP1;P1;durP2;ratioP2;P2;SDS_P1;SDS_P2;PMS_P1;PMS_P2;Temp;Humidity;BMP_temperature;BMP_pressure;BME280_temperature;BME280_humidity;BME280_pressure;Samples;Min_cycle;Max_cycle;Signal;HPM_P1;HPM_P2
2023/11/22 00:00:14;;;;;;;19.63;12.13;;;;;;;9.75;71.31;99049.22;5133163;27;20026;-40
2023/11/22 00:02:39;;;;;;;23.98;12.90;;;;;;;9.77;70.81;99046.34;5133397;27;20023;-40
2023/11/22 00:05:06;;;;;;;26.05;12.98;;;;;;;9.65;70.95;99056.00;5133018;27;20019;-40
2023/11/22 00:07:32;;;;;;;21.95;12.77;;;;;;;9.73;73.08;99053.91;5133018;27;20397;-40
2023/11/22 00:09:58;;;;;;;23.17;12.32;;;;;;;9.70;72.94;99038.41;5132800;27;20027;-40
2023/11/22 00:12:24;;;;;;;23.77;12.55;;;;;;;9.63;73.04;99042.94;5132752;27;20033;-39
2023/11/22 00:14:51;;;;;;;23.40;12.15;;;;;;;9.70;71.92;99034.94;5132480;27;20462;-39
2023/11/22 00:17:17;;;;;;;23.75;12.23;;;;;;;9.64;69.84;99033.94;5132910;27;20099;-40
2023/11/22 00:19:44;;;;;;;23.77;13.23;;;;;;;9.83;70.30;99032.19;5133002;27;20094;-40
2023/11/22 00:22:16;;;;;;;22.20;11.93;;;;;;;9.92;69.74;99038.06;5132797;27;20027;-37
2023/11/22 00:24:41;;;;;;;22.63;12.98;;;;;;;9.71;70.13;99037.38;5132752;27;20098;-40
2023/11/22 00:27:07;;;;;;;21.08;11.68;;;;;;;9.67;70.43;99027.38;5132913;27;20407;-40
2023/11/22 00:29:34;;;;;;;21.35;12.00;;;;;;;9.86;69.75;99022.97;5132932;27;20091;-40
2023/11/22 00:31:59;;;;;;;19.98;11.32;;;;;;;9.46;71.16;99028.53;5132542;27;20223;-39
2023/11/22 00:34:25;;;;;;;23.30;12.52;;;;;;;9.50;70.26;99029.72;5131844;27;20105;-40
2023/11/22 00:36:50;;;;;;;21.88;12.07;;;;;;;9.50;71.06;99037.69;5132378;27;20037;-40
2023/11/22 00:39:16;;;;;;;20.95;12.27;;;;;;;9.63;69.85;99040.28;5132545;27;20072;-39
2023/11/22 00:41:42;;;;;;;21.00;11.55;;;;;;;9.34;71.19;99033.72;5132472;27;20106;-39
2023/11/22 00:44:07;;;;;;;20.55;12.13;;;;;;;9.61;69.24;99033.56;5132139;27;20011;-40
2023/11/22 00:46:33;;;;;;;21.17;12.30;;;;;;;9.51;69.66;99026.88;5132252;27;20080;-39
2023/11/22 00:48:58;;;;;;;22.88;12.38;;;;;;;9.56;69.98;99012.97;5132313;28;20023;-40
2023/11/22 00:51:24;;;;;;;20.58;12.02;;;;;;;9.74;69.05;99025.50;5132325;28;20027;-40
2023/11/22 00:53:49;;;;;;;21.42;12.60;;;;;;;9.67;69.59;99027.38;5131966;28;20070;-40
2023/11/22 00:56:15;;;;;;;23.38;13.52;;;;;;;9.56;69.43;99027.06;5132311;28;20027;-40
2023/11/22 00:58:41;;;;;;;25.65;14.43;;;;;;;9.76;69.60;99040.19;5132005;28;20022;-40
2023/11/22 01:01:07;;;;;;;24.45;12.88;;;;;;;9.61;69.71;99039.69;5132266;28;20019;-40
2023/11/22 01:03:33;;;;;;;24.58;12.68;;;;;;;9.83;68.46;99028.72;5131928;28;20015;-40
2023/11/22 01:05:58;;;;;;;23.33;12.57;;;;;;;9.83;68.92;99028.72;5132229;28;20031;-40
2023/11/22 01:08:24;;;;;;;21.42;12.15;;;;;;;9.87;68.79;99028.06;5132259;28;20414;-40
2023/11/22 01:10:49;;;;;;;21.52;12.70;;;;;;;9.53;69.13;99014.19;5113570;28;20019;-38
2023/11/22 01:13:15;;;;;;;25.73;13.43;;;;;;;9.82;68.41;99008.47;5132039;28;20015;-40
2023/11/22 01:15:41;;;;;;;28.48;14.00;;;;;;;9.92;68.15;99009.63;5132312;27;20024;-40
2023/11/22 01:18:07;;;;;;;24.35;12.73;;;;;;;9.76;69.04;99008.31;5132055;27;20462;-40
2023/11/22 01:20:32;;;;;;;21.23;11.73;;;;;;;9.55;69.34;99013.97;5131948;28;20087;-40
2023/11/22 01:22:57;;;;;;;18.35;11.43;;;;;;;9.76;67.55;99008.31;5131965;28;20451;-40
2023/11/22 01:25:23;;;;;;;19.90;11.63;;;;;;;9.76;69.10;99018.13;5132048;27;20656;-41
2023/11/22 01:27:48;;;;;;;18.50;11.02;;;;;;;10.03;67.86;99013.41;5135828;27;20022;-38
2023/11/22 01:30:14;;;;;;;23.55;11.50;;;;;;;9.92;67.42;99016.81;5117689;27;20027;-40
2023/11/22 01:32:40;;;;;;;19.15;11.25;;;;;;;9.86;68.57;99012.31;5136368;27;20067;-38
2023/11/22 01:35:06;;;;;;;18.42;10.82;;;;;;;9.71;68.40;99017.94;5135116;27;20098;-40
2023/11/22 01:37:32;;;;;;;17.90;10.60;;;;;;;9.63;68.96;99023.53;5135778;27;20042;-40
2023/11/22 01:39:58;;;;;;;17.25;10.55;;;;;;;9.77;67.85;99015.25;5135924;27;20707;-40
2023/11/22 01:42:25;;;;;;;16.90;10.00;;;;;;;9.80;68.38;99006.03;5135584;27;20458;-40
2023/11/22 01:44:52;;;;;;;19.92;9.85;;;;;;;9.86;67.45;99001.69;5135764;27;20038;-40
2023/11/22 01:47:18;;;;;;;18.38;10.88;;;;;;;9.66;68.79;99005.31;5135699;27;20027;-40
2023/11/22 01:49:44;;;;;;;17.38;10.35;;;;;;;9.83;68.06;99010.13;5135434;27;20051;-40
2023/11/22 01:52:10;;;;;;;21.67;10.55;;;;;;;9.68;68.64;99005.13;5135538;27;20026;-40
2023/11/22 01:54:36;;;;;;;17.42;10.70;;;;;;;9.89;67.09;99003.94;5135258;27;20047;-40
2023/11/22 01:57:02;;;;;;;18.80;10.38;;;;;;;10.06;66.75;98998.88;5135955;27;20047;-39
2023/11/22 01:59:29;;;;;;;18.42;10.38;;;;;;;9.84;67.55;98993.94;5135334;27;20015;-39
2023/11/22 02:01:55;;;;;;;17.58;10.43;;;;;;;10.10;67.05;98998.22;5135323;27;20019;-40
2023/11/22 02:04:20;;;;;;;18.90;10.95;;;;;;;10.13;66.66;99002.31;5116523;27;20399;-39
2023/11/22 02:06:47;;;;;;;16.98;10.20;;;;;;;9.91;68.06;98983.25;5135281;27;20131;-40
2023/11/22 02:09:15;;;;;;;19.20;11.07;;;;;;;10.04;67.39;98992.97;5135258;27;20045;-40
2023/11/22 02:11:42;;;;;;;18.58;10.57;;;;;;;9.88;68.14;98984.53;5135382;27;20447;-40
2023/11/22 02:14:08;;;;;;;18.52;11.00;;;;;;;9.67;68.80;98985.72;5135124;27;20018;-39
2023/11/22 02:16:34;;;;;;;19.83;11.00;;;;;;;9.75;68.74;98992.59;5134985;27;20019;-40
2023/11/22 02:19:00;;;;;;;18.65;11.80;;;;;;;9.49;70.44;98996.25;5134787;27;20076;-39
2023/11/22 02:21:25;;;;;;;23.00;11.13;;;;;;;9.32;71.76;98998.59;5134988;27;20111;-40
2023/11/22 02:23:51;;;;;;;19.80;11.52;;;;;;;9.54;70.96;99001.75;5134789;27;20031;-39
2023/11/22 02:26:17;;;;;;;20.70;10.43;;;;;;;9.49;70.35;98993.59;5134961;27;20129;-39
2023/11/22 02:28:43;;;;;;;18.17;11.70;;;;;;;9.44;70.62;98977.47;5134873;27;20019;-39
2023/11/22 02:31:09;;;;;;;23.33;12.13;;;;;;;9.68;69.34;98960.75;5134502;27;20486;-39
2023/11/22 02:33:35;;;;;;;19.60;11.40;;;;;;;9.55;70.44;98982.09;5134433;27;20035;-39
2023/11/22 02:36:01;;;;;;;21.83;11.45;;;;;;;9.52;69.85;98979.88;5134156;27;20046;-39
2023/11/22 02:38:28;;;;;;;20.42;11.63;;;;;;;9.56;70.67;98981.91;5134373;27;20138;-37
2023/11/22 02:40:53;;;;;;;22.58;12.48;;;;;;;9.74;69.31;98983.78;5134717;27;20106;-40
2023/11/22 02:43:19;;;;;;;20.52;12.18;;;;;;;9.75;69.39;98984.63;5134386;27;20101;-40
2023/11/22 02:45:45;;;;;;;22.73;12.57;;;;;;;10.11;67.61;98983.91;5134557;27;20031;-39
2023/11/22 02:48:10;;;;;;;20.45;11.48;;;;;;;9.98;68.31;98978.72;5134345;27;20019;-40
2023/11/22 02:50:39;;;;;;;22.05;11.82;;;;;;;9.66;69.77;98960.16;5134696;27;20023;-39
2023/11/22 02:53:05;;;;;;;18.77;11.50;;;;;;;9.75;70.63;98977.47;5134057;27;20494;-39
2023/11/22 02:55:30;;;;;;;23.20;12.38;;;;;;;9.52;71.22;98985.19;5134162;27;20034;-37
2023/11/22 02:57:56;;;;;;;21.92;12.50;;;;;;;9.35;72.39;98980.41;5134312;27;20023;-39
2023/11/22 03:00:21;;;;;;;20.80;12.85;;;;;;;9.43;72.18;98987.28;5134547;27;20023;-40
2023/11/22 03:02:47;;;;;;;22.98;13.45;;;;;;;9.57;71.06;98999.44;5134027;27;20033;-39
2023/11/22 03:05:14;;;;;;;23.27;12.95;;;;;;;9.36;71.69;99003.25;5133663;27;20102;-40
2023/11/22 03:07:41;;;;;;;19.55;12.35;;;;;;;9.21;72.34;99008.03;5132863;27;20050;-40
2023/11/22 03:10:08;;;;;;;26.17;13.55;;;;;;;9.25;73.11;98995.97;5133405;27;20035;-40
2023/11/22 03:12:34;;;;;;;24.60;13.43;;;;;;;9.28;72.28;99003.50;5133636;27;20062;-39
2023/11/22 03:15:01;;;;;;;26.17;14.18;;;;;;;9.47;71.45;98990.34;5133405;27;20454;-40
2023/11/22 03:17:31;;;;;;;23.95;12.73;;;;;;;9.38;72.38;98982.63;5133438;27;20398;-40
2023/11/22 03:19:57;;;;;;;23.40;13.32;;;;;;;9.26;73.20;98984.34;5114795;27;20492;-40
2023/11/22 03:22:23;;;;;;;21.88;12.32;;;;;;;9.16;73.43;98979.50;5133681;27;20026;-40
2023/11/22 03:24:49;;;;;;;21.98;12.50;;;;;;;9.30;72.56;98977.56;5133267;27;20431;-41
2023/11/22 03:27:15;;;;;;;25.02;13.75;;;;;;;9.43;71.97;98962.59;5133851;27;20035;-40
2023/11/22 03:29:41;;;;;;;23.10;12.95;;;;;;;9.08;73.58;98941.75;5133221;27;20153;-40
2023/11/22 03:32:06;;;;;;;23.98;13.38;;;;;;;8.89;74.26;98946.97;5133398;27;20027;-40
2023/11/22 03:34:31;;;;;;;28.17;14.43;;;;;;;9.04;74.20;98948.53;5132958;27;20463;-40
2023/11/22 03:36:57;;;;;;;25.20;13.48;;;;;;;9.42;73.49;98943.16;5133639;27;20045;-40
2023/11/22 03:39:22;;;;;;;25.27;12.93;;;;;;;9.20;73.94;98954.13;5133385;27;20031;-39
2023/11/22 03:41:48;;;;;;;24.80;13.70;;;;;;;9.20;73.80;98967.41;5132391;27;20027;-40
2023/11/22 03:44:13;;;;;;;24.02;13.43;;;;;;;8.99;73.78;98976.50;5133355;27;20023;-40
2023/11/22 03:46:39;;;;;;;26.95;14.88;;;;;;;9.06;74.05;98991.59;5133215;27;20487;-40
2023/11/22 03:49:08;;;;;;;27.58;13.95;;;;;;;9.08;73.55;98994.84;5132259;27;20452;-40
2023/11/22 03:51:34;;;;;;;27.23;13.85;;;;;;;8.84;74.67;98993.75;5125240;27;20714;-40
2023/11/22 03:54:00;;;;;;;28.20;14.02;;;;;;;8.70;75.73;98988.47;5112446;28;20138;-39
2023/11/22 03:56:26;;;;;;;28.55;14.93;;;;;;;8.79;75.71;98981.09;5112220;28;20111;-37
2023/11/22 03:58:52;;;;;;;28.38;14.63;;;;;;;9.18;74.00;98985.41;5112433;28;20064;-40
2023/11/22 04:01:18;;;;;;;29.02;14.27;;;;;;;9.32;72.45;98983.47;5118986;27;20028;-40
2023/11/22 04:03:44;;;;;;;26.17;14.38;;;;;;;9.21;73.25;98992.13;5130910;27;20027;-40
2023/11/22 04:06:09;;;;;;;28.27;13.90;;;;;;;9.00;74.13;98979.97;5132113;27;20042;-39
2023/11/22 04:08:34;;;;;;;22.88;14.13;;;;;;;9.14;73.03;98981.53;5132530;27;20113;-40
2023/11/22 04:11:01;;;;;;;26.70;14.10;;;;;;;9.20;73.87;99004.59;5132499;27;20027;-40
2023/11/22 04:13:27;;;;;;;27.60;14.27;;;;;;;9.15;73.19;99003.59;5131887;27;20182;-39
2023/11/22 04:15:52;;;;;;;25.58;13.55;;;;;;;9.09;73.92;99007.09;5131826;27;20031;-40
2023/11/22 04:18:18;;;;;;;24.52;13.95;;;;;;;9.24;73.83;99004.16;5132077;27;20483;-40
2023/11/22 04:20:44;;;;;;;24.45;14.77;;;;;;;9.43;72.43;99010.41;5132549;27;20102;-40
2023/11/22 04:23:10;;;;;;;27.75;14.60;;;;;;;9.11;74.02;98992.56;5132431;27;20114;-40
2023/11/22 04:25:37;;;;;;;24.38;14.02;;;;;;;9.32;73.15;98994.09;5131891;27;20050;-40
2023/11/22 04:28:03;;;;;;;26.73;14.05;;;;;;;9.62;71.78;98990.84;5134142;27;20035;-40
2023/11/22 04:30:29;;;;;;;26.83;14.48;;;;;;;9.17;72.96;98993.56;5152103;27;20022;-40
2023/11/22 04:32:54;;;;;;;31.45;14.57;;;;;;;8.95;74.34;98998.38;5152577;27;20492;-40
2023/11/22 04:35:19;;;;;;;28.00;13.75;;;;;;;9.03;74.88;99011.41;5141998;27;20398;-40
2023/11/22 04:37:46;;;;;;;25.77;13.68;;;;;;;9.07;74.22;99030.38;5131687;27;20027;-40
2023/11/22 04:40:14;;;;;;;25.90;13.95;;;;;;;9.14;74.20;99031.97;5131953;27;20019;-40
2023/11/22 04:42:39;;;;;;;24.33;13.65;;;;;;;9.23;73.93;99013.94;5136453;27;20018;-40
2023/11/22 04:45:06;;;;;;;26.83;13.60;;;;;;;9.17;74.31;99014.81;5147624;27;20606;-40
2023/11/22 04:47:32;;;;;;;26.08;14.13;;;;;;;9.17;73.96;99020.91;5126285;27;20541;-39
2023/11/22 04:49:57;;;;;;;23.92;13.75;;;;;;;9.05;75.02;99038.56;5131599;28;20094;-40
2023/11/22 04:52:23;;;;;;;31.55;15.20;;;;;;;9.70;76.45;99049.03;5125874;28;20015;-40
2023/11/22 04:54:48;;;;;;;30.52;15.05;;;;;;;10.43;73.08;99063.59;5121513;28;20169;-39
2023/11/22 04:57:13;;;;;;;32.22;15.75;;;;;;;10.95;69.69;99068.63;5110881;28;20054;-40
2023/11/22 04:59:40;;;;;;;32.45;16.20;;;;;;;11.21;68.17;99056.03;5110510;28;20027;-40
2023/11/22 05:02:07;;;;;;;32.53;16.50;;;;;;;11.37;67.23;99067.94;5115031;28;20019;-39
2023/11/22 05:04:32;;;;;;;25.90;15.25;;;;;;;11.62;65.10;99068.59;5114475;28;20200;-40
2023/11/22 05:06:58;;;;;;;26.95;14.48;;;;;;;11.57;63.91;99073.78;5114133;28;20483;-41
2023/11/22 05:09:23;;;;;;;32.25;15.02;;;;;;;11.72;64.81;99084.03;5113821;28;20428;-40
2023/11/22 05:11:49;;;;;;;25.02;14.60;;;;;;;12.09;67.14;99091.94;5113763;28;20027;-40
2023/11/22 05:14:14;;;;;;;27.27;13.82;;;;;;;12.24;63.38;99096.81;5114044;28;20015;-40
2023/11/22 05:16:40;;;;;;;24.45;12.98;;;;;;;12.21;62.43;99089.28;5114614;28;20042;-37
2023/11/22 05:19:05;;;;;;;21.85;12.65;;;;;;;11.81;62.45;99097.88;5114518;28;20020;-41
2023/11/22 05:21:32;;;;;;;22.27;12.85;;;;;;;11.80;63.21;99099.69;5115005;28;20015;-40
2023/11/22 05:23:57;;;;;;;19.98;11.63;;;;;;;11.60;62.71;99097.31;5114568;28;20047;-39
2023/11/22 05:26:23;;;;;;;16.85;10.60;;;;;;;11.39;63.45;99081.84;5114296;28;20054;-42
2023/11/22 05:28:48;;;;;;;25.75;11.57;;;;;;;11.45;63.38;99080.94;5114408;28;20024;-40
2023/11/22 05:31:14;;;;;;;19.80;11.35;;;;;;;11.53;62.23;99077.94;5114630;28;20027;-40
2023/11/22 05:33:40;;;;;;;17.63;11.23;;;;;;;11.50;65.60;99083.75;5114949;28;20109;-39
2023/11/22 05:36:06;;;;;;;19.77;11.93;;;;;;;11.83;64.65;99101.13;5128679;27;20259;-42
2023/11/22 05:38:33;;;;;;;18.75;10.90;;;;;;;12.06;63.01;99108.41;5135428;27;20106;-40
2023/11/22 05:40:58;;;;;;;20.48;10.68;;;;;;;12.23;61.01;99111.22;5134679;27;20104;-41
2023/11/22 05:43:26;;;;;;;19.77;10.30;;;;;;;12.39;61.10;99113.19;5134782;27;20075;-41
2023/11/22 05:45:55;;;;;;;21.50;11.75;;;;;;;12.19;61.45;99105.53;5134631;27;20068;-43
2023/11/22 05:48:20;;;;;;;19.25;11.30;;;;;;;12.04;61.93;99127.28;5134178;27;20541;-41
2023/11/22 05:50:46;;;;;;;18.25;11.00;;;;;;;12.29;61.49;99136.97;5134547;27;20027;-41
2023/11/22 05:53:12;;;;;;;20.60;10.95;;;;;;;12.42;60.09;99130.63;5134378;27;20035;-41
2023/11/22 05:55:38;;;;;;;18.88;10.82;;;;;;;12.40;61.05;99143.38;5134560;27;20402;-42
2023/11/22 05:58:04;;;;;;;20.30;11.07;;;;;;;12.48;60.65;99148.38;5134395;27;20055;-41
2023/11/22 06:00:29;;;;;;;20.10;10.82;;;;;;;12.41;60.53;99139.66;5134621;27;20019;-39
2023/11/22 06:02:55;;;;;;;19.80;11.13;;;;;;;12.55;59.69;99143.75;5135027;27;20026;-39
2023/11/22 06:05:21;;;;;;;19.77;11.07;;;;;;;12.78;59.46;99142.94;5134540;27;20040;-41
2023/11/22 06:07:47;;;;;;;19.70;11.55;;;;;;;12.80;59.16;99148.03;5134913;27;20034;-41
2023/11/22 06:10:15;;;;;;;19.25;11.48;;;;;;;12.85;58.51;99142.81;5134722;27;20019;-42
2023/11/22 06:12:41;;;;;;;24.63;11.68;;;;;;;12.61;58.33;99137.47;5134021;27;20038;-41
2023/11/22 06:15:07;;;;;;;19.02;11.70;;;;;;;12.36;60.16;99124.34;5129802;27;20391;-41
2023/11/22 06:17:33;;;;;;;23.75;12.77;;;;;;;12.29;59.87;99132.44;5115221;27;20031;-42
2023/11/22 06:19:58;;;;;;;25.70;13.02;;;;;;;12.19;60.85;99134.06;5113867;28;20047;-41
2023/11/22 06:22:24;;;;;;;26.25;12.93;;;;;;;12.16;61.68;99145.19;5114056;28;20403;-42
2023/11/22 06:24:49;;;;;;;25.30;13.65;;;;;;;12.46;61.01;99142.44;5113420;28;20483;-41
2023/11/22 06:27:17;;;;;;;27.27;13.35;;;;;;;12.25;60.95;99136.59;5113493;28;20403;-41
2023/11/22 06:29:46;;;;;;;20.75;12.88;;;;;;;12.12;61.89;99142.16;5113789;28;20062;-40
2023/11/22 06:32:12;;;;;;;25.30;13.88;;;;;;;12.40;60.98;99133.50;5112388;28;20099;-40
2023/11/22 06:34:37;;;;;;;22.42;13.05;;;;;;;12.12;62.30;99155.47;5114370;27;20110;-41
2023/11/22 06:37:04;;;;;;;21.45;12.68;;;;;;;12.45;62.86;99164.81;5133678;27;20023;-42
2023/11/22 06:39:29;;;;;;;25.75;12.70;;;;;;;12.72;62.28;99175.91;5133904;27;20023;-41
2023/11/22 06:41:55;;;;;;;21.92;12.63;;;;;;;12.80;62.19;99178.22;5133878;27;20030;-40
2023/11/22 06:44:20;;;;;;;21.35;12.93;;;;;;;12.64;63.02;99184.22;5133833;27;20030;-42
2023/11/22 06:46:46;;;;;;;22.88;13.32;;;;;;;12.87;63.04;99186.94;5134196;27;20115;-41
2023/11/22 06:49:11;;;;;;;21.92;12.50;;;;;;;13.17;62.16;99190.50;5134383;27;20098;-41
2023/11/22 06:51:37;;;;;;;23.90;13.13;;;;;;;13.36;60.71;99197.38;5134133;27;20539;-40
2023/11/22 06:54:02;;;;;;;20.63;12.57;;;;;;;13.36;60.22;99202.72;5134097;27;20487;-41
2023/11/22 06:56:28;;;;;;;21.02;11.98;;;;;;;13.21;61.01;99200.53;5133361;27;20120;-41
2023/11/22 06:58:54;;;;;;;26.25;12.77;;;;;;;13.24;60.56;99202.72;5133725;27;20030;-41
2023/11/22 07:01:23;;;;;;;21.00;12.60;;;;;;;13.27;61.06;99206.78;5133737;27;20039;-42
2023/11/22 07:03:49;;;;;;;23.20;12.48;;;;;;;13.21;61.30;99215.72;5133410;27;20470;-41
2023/11/22 07:06:14;;;;;;;24.98;12.80;;;;;;;13.05;61.64;99211.91;5133522;27;20058;-40
2023/11/22 07:08:40;;;;;;;23.67;12.38;;;;;;;13.13;60.21;99210.72;5133726;27;20027;-41
2023/11/22 07:11:09;;;;;;;20.02;12.57;;;;;;;13.12;59.21;99199.25;5133082;27;20031;-41
2023/11/22 07:13:36;;;;;;;19.77;12.07;;;;;;;13.02;60.21;99177.63;5133450;27;20027;-40
2023/11/22 07:16:02;;;;;;;20.25;12.73;;;;;;;12.59;61.40;99179.59;5133158;27;20024;-41
2023/11/22 07:18:27;;;;;;;29.20;13.07;;;;;;;12.46;62.70;99177.94;5133756;27;20102;-41
2023/11/22 07:20:55;;;;;;;25.30;13.93;;;;;;;12.67;62.43;99192.59;5133468;27;20478;-41
2023/11/22 07:23:22;;;;;;;22.65;13.82;;;;;;;12.94;61.22;99192.16;5131937;27;20027;-41
2023/11/22 07:25:50;;;;;;;25.83;13.95;;;;;;;13.05;61.19;99196.69;5132655;27;20098;-40
2023/11/22 07:28:16;;;;;;;23.42;13.77;;;;;;;13.23;61.16;99195.75;5132206;27;20114;-41
2023/11/22 07:30:41;;;;;;;25.60;14.30;;;;;;;13.40;61.16;99201.22;5133008;27;20059;-42
2023/11/22 07:33:07;;;;;;;22.90;12.68;;;;;;;13.38;61.03;99205.16;5133064;27;20031;-44
2023/11/22 07:35:32;;;;;;;22.90;13.18;;;;;;;13.36;60.53;99202.72;5133548;27;20031;-42
2023/11/22 07:37:58;;;;;;;22.10;13.40;;;;;;;13.53;59.95;99199.34;5133006;27;20402;-41
2023/11/22 07:40:23;;;;;;;22.17;13.05;;;;;;;13.52;60.13;99200.38;5132493;27;20071;-41
2023/11/22 07:42:49;;;;;;;25.15;14.13;;;;;;;13.55;59.77;99199.91;5132874;27;20110;-41
2023/11/22 07:45:14;;;;;;;29.92;15.02;;;;;;;13.40;60.39;99203.91;5133087;27;20102;-43
2023/11/22 07:47:41;;;;;;;27.20;14.98;;;;;;;13.42;60.84;99208.97;5132755;27;20034;-43
2023/11/22 07:50:11;;;;;;;32.28;16.98;;;;;;;13.09;61.87;99203.19;5132921;27;20422;-41
2023/11/22 07:52:37;;;;;;;;;;;;;;;13.55;61.03;99200.72;5133181;27;20114;-41
2023/11/22 07:55:07;;;;;;;27.50;15.82;;;;;;;13.59;61.32;99217.91;5132676;27;20016;-42
2023/11/22 07:57:35;;;;;;;32.63;16.60;;;;;;;13.55;61.61;99218.63;5133160;27;20116;-40
2023/11/22 08:00:04;;;;;;;33.63;18.50;;;;;;;13.54;60.97;99215.13;5132691;27;20019;-43
2023/11/22 08:02:30;;;;;;;37.50;20.70;;;;;;;13.59;61.59;99217.91;5132517;27;20019;-42
2023/11/22 08:04:56;;;;;;;42.72;20.65;;;;;;;13.43;62.67;99218.63;5132477;27;20054;-43
2023/11/22 08:07:22;;;;;;;47.60;20.70;;;;;;;13.29;62.83;99216.19;5132565;27;20051;-41
2023/11/22 08:09:48;;;;;;;39.97;21.05;;;;;;;13.23;63.58;99217.13;5132584;27;20034;-42
2023/11/22 08:12:13;;;;;;;43.72;21.60;;;;;;;13.26;63.59;99223.84;5132365;27;20097;-43
2023/11/22 08:14:40;;;;;;;40.50;21.58;;;;;;;13.25;64.52;99231.06;5132387;27;20007;-40
2023/11/22 08:17:06;;;;;;;38.08;20.63;;;;;;;13.17;64.31;99226.06;5132349;27;20030;-42
2023/11/22 08:19:32;;;;;;;40.80;20.83;;;;;;;13.13;64.15;99235.59;5132160;27;20019;-42
2023/11/22 08:21:57;;;;;;;33.50;19.33;;;;;;;13.37;63.45;99227.59;5132337;27;20035;-43
2023/11/22 08:24:23;;;;;;;39.92;21.52;;;;;;;13.59;62.86;99225.13;5131966;27;20019;-44
2023/11/22 08:26:48;;;;;;;34.88;20.08;;;;;;;13.69;62.28;99220.78;5132282;27;20039;-42
2023/11/22 08:29:14;;;;;;;35.35;20.20;;;;;;;13.64;62.36;99228.69;5131759;27;20088;-42
2023/11/22 08:31:40;;;;;;;36.88;21.02;;;;;;;13.62;62.73;99220.09;5132224;27;20075;-42
2023/11/22 08:34:07;;;;;;;33.90;19.67;;;;;;;13.72;62.75;99221.38;5132190;27;20015;-40
2023/11/22 08:36:34;;;;;;;41.63;20.52;;;;;;;13.73;62.24;99217.63;5131682;27;20023;-45
2023/11/22 08:39:00;;;;;;;38.22;19.33;;;;;;;13.74;62.29;99219.28;5132138;27;20050;-42
2023/11/22 08:41:29;;;;;;;36.15;19.90;;;;;;;13.91;62.39;99220.16;5132179;27;20019;-44
2023/11/22 08:43:55;;;;;;;41.43;21.23;;;;;;;13.99;61.92;99224.31;5131978;27;20072;-44
2023/11/22 08:46:20;;;;;;;44.40;23.70;;;;;;;14.00;62.54;99223.25;5132053;27;20027;-43
2023/11/22 08:48:45;;;;;;;46.65;26.20;;;;;;;13.91;62.41;99222.00;5132253;28;20102;-41
2023/11/22 08:51:11;;;;;;;48.55;24.63;;;;;;;13.83;63.50;99241.94;5132348;28;20030;-42
2023/11/22 08:53:37;;;;;;;36.83;19.92;;;;;;;13.73;63.24;99231.84;5131760;28;20071;-44
2023/11/22 08:56:05;;;;;;;34.60;18.33;;;;;;;13.68;63.87;99235.19;5131921;28;20498;-42
2023/11/22 08:58:31;;;;;;;31.42;17.70;;;;;;;13.62;64.42;99236.16;5132155;28;20039;-45
2023/11/22 09:00:57;;;;;;;33.13;18.88;;;;;;;13.72;65.23;99230.19;5132024;28;20031;-45
2023/11/22 09:03:23;;;;;;;30.08;18.10;;;;;;;13.69;64.68;99223.47;5131670;28;20098;-42
2023/11/22 09:05:49;;;;;;;33.05;19.23;;;;;;;13.67;64.60;99230.91;5131663;28;20073;-42
2023/11/22 09:08:15;;;;;;;36.67;19.15;;;;;;;13.42;65.48;99228.53;5131897;28;20454;-43
2023/11/22 09:10:42;;;;;;;33.97;20.35;;;;;;;13.66;64.95;99225.81;5131669;28;20027;-43
2023/11/22 09:13:08;;;;;;;39.65;20.23;;;;;;;13.60;65.76;99232.09;5131906;28;20027;-41
2023/11/22 09:15:35;;;;;;;36.70;20.70;;;;;;;13.89;65.24;99227.59;5131827;28;20031;-42
2023/11/22 09:18:01;;;;;;;38.05;20.23;;;;;;;14.03;64.82;99223.59;5131458;27;20079;-41
2023/11/22 09:20:27;;;;;;;33.10;18.92;;;;;;;14.18;63.83;99232.94;5131541;28;20358;-44
2023/11/22 09:22:54;;;;;;;30.92;17.60;;;;;;;14.02;64.27;99239.88;5131533;28;20395;-43
2023/11/22 09:25:24;;;;;;;32.08;18.10;;;;;;;14.02;63.53;99239.88;5131764;28;20035;-42
2023/11/22 09:27:58;;;;;;;34.25;18.60;;;;;;;13.97;63.64;99237.91;5131090;28;20027;-40
2023/11/22 09:30:32;;;;;;;26.73;16.17;;;;;;;14.24;61.58;99240.00;5131691;28;20091;-44
2023/11/22 09:33:10;;;;;;;28.13;15.23;;;;;;;14.37;60.77;99246.94;5113080;28;20031;-44
2023/11/22 09:35:36;;;;;;;27.15;15.48;;;;;;;14.51;60.64;99242.09;5131263;28;20019;-42
2023/11/22 09:38:06;;;;;;;27.08;15.52;;;;;;;14.60;61.66;99240.69;5131413;28;20027;-41
2023/11/22 09:40:32;;;;;;;33.88;17.40;;;;;;;14.52;60.14;99247.22;5131407;28;20030;-40
2023/11/22 09:43:02;;;;;;;28.65;16.05;;;;;;;14.48;60.60;99246.88;5131368;28;20027;-41
2023/11/22 09:45:27;;;;;;;26.40;16.25;;;;;;;14.51;59.90;99253.63;5131445;28;20144;-41
2023/11/22 09:47:54;;;;;;;22.70;14.52;;;;;;;14.49;58.92;99239.69;5133721;27;20031;-41
2023/11/22 09:50:29;;;;;;;26.20;13.40;;;;;;;14.71;59.10;99245.16;5135277;27;20027;-42
2023/11/22 09:52:58;;;;;;;23.48;14.10;;;;;;;14.63;59.37;99246.38;5135290;27;20023;-41
2023/11/22 09:55:28;;;;;;;21.67;13.70;;;;;;;14.91;58.28;99255.41;5134929;27;20055;-43
2023/11/22 09:57:54;;;;;;;24.58;14.48;;;;;;;14.92;59.03;99248.97;5135192;27;20180;-43
2023/11/22 10:00:21;;;;;;;27.48;13.80;;;;;;;14.99;58.06;99254.19;5134992;27;20522;-41
2023/11/22 10:02:47;;;;;;;28.20;15.10;;;;;;;14.98;58.09;99239.16;5135040;27;20023;-45
2023/11/22 10:05:13;;;;;;;27.27;14.00;;;;;;;15.14;57.60;99240.22;5134783;27;20071;-41
2023/11/22 10:07:39;;;;;;;21.55;13.90;;;;;;;15.20;57.68;99236.53;5134904;27;20499;-42
2023/11/22 10:10:06;;;;;;;22.73;13.93;;;;;;;15.41;57.25;99235.75;5134909;27;20050;-44
2023/11/22 10:12:34;;;;;;;25.73;12.95;;;;;;;15.57;56.98;99244.00;5134253;27;20015;-42
2023/11/22 10:15:15;;;;;;;21.42;11.88;;;;;;;15.67;56.22;99237.97;5134477;27;20068;-44
2023/11/22 10:17:47;;;;;;;17.83;10.80;;;;;;;15.52;55.86;99243.97;5134524;27;20031;-41
2023/11/22 10:20:13;;;;;;;17.67;12.00;;;;;;;15.39;56.87;99231.72;5134662;27;20026;-45
2023/11/22 10:22:47;;;;;;;19.88;11.90;;;;;;;15.41;56.94;99229.59;5134834;27;20395;-42
2023/11/22 10:25:13;;;;;;;21.88;13.38;;;;;;;15.59;57.37;99237.34;5134619;27;20102;-41
2023/11/22 10:27:40;;;;;;;18.08;12.73;;;;;;;15.47;57.59;99243.88;5134668;27;20023;-43
2023/11/22 10:30:09;;;;;;;19.35;12.43;;;;;;;15.42;57.64;99239.25;5134638;27;20015;-41
2023/11/22 10:32:37;;;;;;;20.48;12.75;;;;;;;15.51;57.06;99228.91;5116743;27;20481;-42
2023/11/22 10:35:04;;;;;;;19.95;12.85;;;;;;;15.47;56.34;99238.53;5134209;27;20027;-42
2023/11/22 10:37:29;;;;;;;23.27;14.32;;;;;;;15.31;57.25;99224.09;5134322;27;20019;-41
2023/11/22 10:39:55;;;;;;;22.33;13.63;;;;;;;15.42;57.35;99232.03;5134060;27;20088;-41
2023/11/22 10:42:22;;;;;;;23.48;14.40;;;;;;;15.43;58.51;99244.38;5134268;27;20019;-42
2023/11/22 10:44:48;;;;;;;23.15;13.45;;;;;;;15.60;56.71;99240.84;5134287;27;20411;-43
2023/11/22 10:47:17;;;;;;;29.25;14.90;;;;;;;15.76;56.39;99248.06;5134123;27;20038;-43
2023/11/22 10:49:43;;;;;;;24.40;14.50;;;;;;;15.70;57.18;99242.84;5134405;27;20083;-43
2023/11/22 10:52:13;;;;;;;22.65;13.85;;;;;;;15.71;57.04;99234.56;5134187;27;20023;-41
2023/11/22 10:54:41;;;;;;;;;;;;;;;15.74;56.00;99235.94;5134564;27;20108;-42
2023/11/22 10:57:06;;;;;;;21.42;12.45;;;;;;;15.68;56.69;99237.72;5134172;27;19911;-41
2023/11/22 10:59:33;;;;;;;23.45;12.70;;;;;;;15.79;56.31;99244.06;5133632;27;20102;-42
2023/11/22 11:02:03;;;;;;;20.15;12.02;;;;;;;15.97;56.39;99248.28;5133748;27;20127;-41
2023/11/22 11:04:56;;;;;;;21.42;13.00;;;;;;;16.03;56.10;99245.44;5133749;27;20132;-43
2023/11/22 11:07:27;;;;;;;19.02;12.65;;;;;;;16.06;56.44;99248.66;5133581;27;20027;-41
2023/11/22 11:09:57;;;;;;;18.88;12.10;;;;;;;16.20;56.04;99244.50;5133741;27;20023;-41
2023/11/22 11:12:22;;;;;;;22.00;12.40;;;;;;;16.12;56.56;99239.59;5133518;27;20401;-42
2023/11/22 11:14:49;;;;;;;21.73;11.73;;;;;;;16.11;56.99;99232.63;5132952;27;20098;-40
2023/11/22 11:17:15;;;;;;;20.02;12.02;;;;;;;16.28;56.27;99230.66;5133040;27;20027;-42